SSA995 KMIA-KLAX
Flight info
| Callsign | SSA995 |
|---|---|
| Flight time | 5h 15m |
| Altitude | 30000 |
| Route | GLADZ4 BAGGS REMIS Y280 LEV J86 KAPAA/N0479F320 J86 ELP J50 SSO/N0474F340 J4 WLVRN ESTWD HLYWD1 |
| Aircraft | B739/M-VGDW/C |
Departure
| Time | 2026-05-05 13:54 |
|---|---|
| Airport | Miami International Airport (KMIA) |
Arrival
| Time | 2026-05-05 19:09 |
|---|---|
| Airport | Los Angeles International Airport (KLAX) |
| Time | Latitude | Longitude | Altitude | Speed | Heading |
|---|---|---|---|---|---|
| 2026-05-05 13:20 | 25.79320 | -80.28121 | 20 ft | 0 kts | 168° |
| 2026-05-05 13:41 | 25.79325 | -80.28122 | 20 ft | 3 kts | 167° |
| 2026-05-05 13:42 | 25.79345 | -80.28128 | 20 ft | 3 kts | 167° |
| 2026-05-05 13:42 | 25.79365 | -80.28133 | 23 ft | 3 kts | 173° |
| 2026-05-05 13:42 | 25.79385 | -80.28130 | 22 ft | 3 kts | 214° |
| 2026-05-05 13:42 | 25.79380 | -80.28138 | 23 ft | 3 kts | 237° |
| 2026-05-05 13:43 | 25.79373 | -80.28152 | 21 ft | 0 kts | 243° |
| 2026-05-05 13:46 | 25.79373 | -80.28153 | 22 ft | 1 kts | 243° |
| 2026-05-05 13:47 | 25.79367 | -80.28169 | 22 ft | 4 kts | 250° |
| 2026-05-05 13:47 | 25.79365 | -80.28203 | 19 ft | 4 kts | 269° |
| 2026-05-05 13:47 | 25.79356 | -80.28238 | 20 ft | 6 kts | 248° |
| 2026-05-05 13:47 | 25.79339 | -80.28284 | 18 ft | 7 kts | 252° |
| 2026-05-05 13:48 | 25.79334 | -80.28335 | 18 ft | 7 kts | 265° |
| 2026-05-05 13:48 | 25.79332 | -80.28386 | 18 ft | 7 kts | 266° |
| 2026-05-05 13:48 | 25.79328 | -80.28436 | 18 ft | 6 kts | 265° |
| 2026-05-05 13:48 | 25.79324 | -80.28484 | 18 ft | 6 kts | 267° |
| 2026-05-05 13:49 | 25.79318 | -80.28549 | 17 ft | 12 kts | 263° |
| 2026-05-05 13:49 | 25.79312 | -80.28651 | 14 ft | 14 kts | 267° |
| 2026-05-05 13:49 | 25.79309 | -80.28757 | 12 ft | 13 kts | 279° |
| 2026-05-05 13:49 | 25.79348 | -80.28847 | 13 ft | 13 kts | 299° |
| 2026-05-05 13:50 | 25.79393 | -80.28934 | 15 ft | 14 kts | 300° |
| 2026-05-05 13:50 | 25.79450 | -80.29044 | 15 ft | 20 kts | 298° |
| 2026-05-05 13:50 | 25.79526 | -80.29193 | 17 ft | 24 kts | 300° |
| 2026-05-05 13:50 | 25.79610 | -80.29360 | 16 ft | 24 kts | 300° |
| 2026-05-05 13:51 | 25.79691 | -80.29516 | 15 ft | 23 kts | 300° |
| 2026-05-05 13:51 | 25.79769 | -80.29667 | 12 ft | 22 kts | 299° |
| 2026-05-05 13:51 | 25.79843 | -80.29815 | 11 ft | 22 kts | 299° |
| 2026-05-05 13:51 | 25.79906 | -80.29939 | 12 ft | 14 kts | 299° |
| 2026-05-05 13:52 | 25.79953 | -80.30032 | 12 ft | 13 kts | 300° |
| 2026-05-05 13:52 | 25.79994 | -80.30108 | 13 ft | 7 kts | 306° |
| 2026-05-05 13:52 | 25.80036 | -80.30136 | 14 ft | 7 kts | 349° |
| 2026-05-05 13:52 | 25.80072 | -80.30116 | 15 ft | 4 kts | 67° |
| 2026-05-05 13:53 | 25.80073 | -80.30096 | 13 ft | 3 kts | 88° |
| 2026-05-05 13:53 | 25.80082 | -80.29883 | 12 ft | 62 kts | 87° |
| 2026-05-05 13:53 | 25.80112 | -80.29164 | 19 ft | 122 kts | 88° |
| 2026-05-05 13:53 | 25.80167 | -80.28028 | 18 ft | 171 kts | 84° |
| 2026-05-05 13:54 | 25.80185 | -80.26645 | 346 ft | 185 kts | 89° |
| 2026-05-05 13:54 | 25.80219 | -80.25186 | 910 ft | 185 kts | 85° |
| 2026-05-05 13:54 | 25.80312 | -80.23770 | 1583 ft | 187 kts | 82° |
| 2026-05-05 13:54 | 25.80532 | -80.22323 | 2143 ft | 190 kts | 81° |
| 2026-05-05 13:55 | 25.80621 | -80.20843 | 2738 ft | 193 kts | 87° |
| 2026-05-05 13:55 | 25.80643 | -80.19351 | 3361 ft | 194 kts | 88° |
| 2026-05-05 13:55 | 25.80645 | -80.17806 | 3756 ft | 209 kts | 86° |
| 2026-05-05 13:55 | 25.81174 | -80.16319 | 4097 ft | 216 kts | 42° |
| 2026-05-05 13:56 | 25.82520 | -80.15629 | 4484 ft | 220 kts | 360° |
| 2026-05-05 13:56 | 25.84056 | -80.15719 | 4907 ft | 230 kts | 355° |
| 2026-05-05 13:56 | 25.85724 | -80.15767 | 5337 ft | 249 kts | 358° |
| 2026-05-05 13:56 | 25.87499 | -80.15756 | 5870 ft | 260 kts | 359° |
| 2026-05-05 13:57 | 25.89345 | -80.15746 | 6419 ft | 273 kts | 352° |
| 2026-05-05 13:57 | 25.91229 | -80.16225 | 6931 ft | 284 kts | 340° |
| 2026-05-05 13:57 | 25.93128 | -80.16931 | 7577 ft | 290 kts | 339° |
| 2026-05-05 13:57 | 25.95042 | -80.17643 | 8435 ft | 288 kts | 339° |
| 2026-05-05 13:58 | 25.96913 | -80.18431 | 9237 ft | 286 kts | 326° |
| 2026-05-05 13:58 | 25.98348 | -80.19889 | 10030 ft | 277 kts | 302° |
| 2026-05-05 13:58 | 25.99157 | -80.21773 | 10696 ft | 275 kts | 282° |
| 2026-05-05 13:58 | 25.99463 | -80.23875 | 11298 ft | 276 kts | 276° |
| 2026-05-05 13:59 | 25.99853 | -80.28270 | 12119 ft | 297 kts | 271° |
| 2026-05-05 13:59 | 25.99843 | -80.30610 | 12514 ft | 308 kts | 269° |
| 2026-05-05 14:00 | 25.99776 | -80.35524 | 13301 ft | 328 kts | 270° |
| 2026-05-05 14:00 | 25.99767 | -80.37219 | 13563 ft | 334 kts | 270° |
| 2026-05-05 14:00 | 25.99736 | -80.40736 | 14062 ft | 347 kts | 265° |
| 2026-05-05 14:00 | 25.99139 | -80.43363 | 14401 ft | 357 kts | 248° |
| 2026-05-05 14:01 | 25.97822 | -80.45754 | 14766 ft | 368 kts | 236° |
| 2026-05-05 14:01 | 25.96229 | -80.48029 | 15133 ft | 376 kts | 234° |
| 2026-05-05 14:01 | 25.94574 | -80.50316 | 15489 ft | 383 kts | 234° |
| 2026-05-05 14:01 | 25.92888 | -80.52641 | 15863 ft | 389 kts | 235° |
| 2026-05-05 14:02 | 25.91189 | -80.55002 | 16233 ft | 394 kts | 235° |
| 2026-05-05 14:02 | 25.89475 | -80.57402 | 16597 ft | 399 kts | 236° |
| 2026-05-05 14:02 | 25.87746 | -80.59838 | 16973 ft | 403 kts | 236° |
| 2026-05-05 14:02 | 25.86003 | -80.62298 | 17340 ft | 407 kts | 236° |
| 2026-05-05 14:03 | 25.84247 | -80.64780 | 17734 ft | 410 kts | 236° |
| 2026-05-05 14:03 | 25.82477 | -80.67279 | 18109 ft | 413 kts | 236° |
| 2026-05-05 14:03 | 25.80692 | -80.69797 | 18471 ft | 416 kts | 236° |
| 2026-05-05 14:03 | 25.78960 | -80.72318 | 18798 ft | 415 kts | 242° |
| 2026-05-05 14:04 | 25.77754 | -80.75186 | 19126 ft | 408 kts | 257° |
| 2026-05-05 14:04 | 25.76988 | -80.78212 | 19488 ft | 408 kts | 258° |
| 2026-05-05 14:04 | 25.76211 | -80.81254 | 19829 ft | 410 kts | 257° |
| 2026-05-05 14:04 | 25.75404 | -80.84287 | 20181 ft | 411 kts | 257° |
| 2026-05-05 14:05 | 25.74577 | -80.87326 | 20530 ft | 411 kts | 257° |
| 2026-05-05 14:05 | 25.73745 | -80.90363 | 20889 ft | 411 kts | 257° |
| 2026-05-05 14:05 | 25.72914 | -80.93397 | 21247 ft | 412 kts | 257° |
| 2026-05-05 14:05 | 25.72083 | -80.96432 | 21606 ft | 411 kts | 257° |
| 2026-05-05 14:06 | 25.71250 | -80.99474 | 21898 ft | 413 kts | 257° |
| 2026-05-05 14:06 | 25.70414 | -81.02528 | 22142 ft | 415 kts | 257° |
| 2026-05-05 14:06 | 25.69572 | -81.05603 | 22398 ft | 417 kts | 257° |
| 2026-05-05 14:06 | 25.68727 | -81.08684 | 22649 ft | 419 kts | 257° |
| 2026-05-05 14:07 | 25.67877 | -81.11781 | 22910 ft | 420 kts | 257° |
| 2026-05-05 14:07 | 25.67024 | -81.14887 | 23165 ft | 421 kts | 257° |
| 2026-05-05 14:07 | 25.66168 | -81.17997 | 23425 ft | 422 kts | 257° |
| 2026-05-05 14:07 | 25.65411 | -81.21132 | 23659 ft | 420 kts | 266° |
| 2026-05-05 14:08 | 25.65372 | -81.24338 | 23892 ft | 414 kts | 278° |
| 2026-05-05 14:08 | 25.65979 | -81.27441 | 24100 ft | 412 kts | 291° |
| 2026-05-05 14:08 | 25.67160 | -81.30331 | 24337 ft | 411 kts | 297° |
| 2026-05-05 14:08 | 25.68466 | -81.33154 | 24556 ft | 411 kts | 297° |
| 2026-05-05 14:09 | 25.69791 | -81.35968 | 24778 ft | 411 kts | 297° |
| 2026-05-05 14:09 | 25.71112 | -81.38782 | 25003 ft | 411 kts | 297° |
| 2026-05-05 14:09 | 25.72420 | -81.41601 | 25227 ft | 411 kts | 297° |
| 2026-05-05 14:09 | 25.73705 | -81.44395 | 25456 ft | 411 kts | 297° |
| 2026-05-05 14:10 | 25.74995 | -81.47221 | 25683 ft | 410 kts | 297° |
| 2026-05-05 14:10 | 25.76280 | -81.50046 | 25915 ft | 410 kts | 297° |
| 2026-05-05 14:10 | 25.77559 | -81.52866 | 26151 ft | 409 kts | 297° |
| 2026-05-05 14:10 | 25.78839 | -81.55690 | 26386 ft | 408 kts | 297° |
| 2026-05-05 14:11 | 25.80110 | -81.58495 | 26626 ft | 407 kts | 297° |
| 2026-05-05 14:11 | 25.81379 | -81.61298 | 26831 ft | 407 kts | 297° |
| 2026-05-05 14:11 | 25.82635 | -81.64073 | 26992 ft | 407 kts | 298° |
| 2026-05-05 14:11 | 25.83906 | -81.66882 | 27161 ft | 407 kts | 298° |
| 2026-05-05 14:12 | 25.85178 | -81.69695 | 27336 ft | 408 kts | 298° |
| 2026-05-05 14:12 | 25.86450 | -81.72510 | 27510 ft | 408 kts | 298° |
| 2026-05-05 14:12 | 25.87724 | -81.75330 | 27683 ft | 408 kts | 298° |
| 2026-05-05 14:12 | 25.89179 | -81.78018 | 27839 ft | 406 kts | 309° |
| 2026-05-05 14:13 | 25.91152 | -81.80256 | 28022 ft | 406 kts | 320° |
| 2026-05-05 14:13 | 25.93386 | -81.82176 | 28215 ft | 406 kts | 321° |
| 2026-05-05 14:13 | 25.95654 | -81.84048 | 28388 ft | 406 kts | 322° |
| 2026-05-05 14:13 | 25.97929 | -81.85908 | 28567 ft | 405 kts | 322° |
| 2026-05-05 14:14 | 26.00193 | -81.87767 | 28751 ft | 405 kts | 322° |
| 2026-05-05 14:14 | 26.02450 | -81.89634 | 28928 ft | 404 kts | 322° |
| 2026-05-05 14:14 | 26.04696 | -81.91505 | 29107 ft | 403 kts | 322° |
| 2026-05-05 14:14 | 26.06936 | -81.93380 | 29290 ft | 402 kts | 321° |
| 2026-05-05 14:15 | 26.09163 | -81.95252 | 29483 ft | 401 kts | 321° |
| 2026-05-05 14:15 | 26.11385 | -81.97122 | 29658 ft | 400 kts | 321° |
| 2026-05-05 14:15 | 26.13597 | -81.98987 | 29847 ft | 399 kts | 321° |
| 2026-05-05 14:15 | 26.15805 | -82.00849 | 30025 ft | 398 kts | 322° |
| 2026-05-05 14:16 | 26.20238 | -82.04593 | 30057 ft | 403 kts | 322° |
| 2026-05-05 14:16 | 26.24720 | -82.08380 | 30060 ft | 406 kts | 322° |
| 2026-05-05 14:17 | 26.29194 | -82.12164 | 30060 ft | 407 kts | 322° |
| 2026-05-05 14:17 | 26.33709 | -82.15986 | 30061 ft | 408 kts | 322° |
| 2026-05-05 14:18 | 26.38236 | -82.19822 | 30061 ft | 409 kts | 321° |
| 2026-05-05 14:18 | 26.42778 | -82.23675 | 30057 ft | 410 kts | 321° |
| 2026-05-05 14:19 | 26.47322 | -82.27534 | 30064 ft | 411 kts | 321° |
| 2026-05-05 14:19 | 26.51874 | -82.31403 | 30063 ft | 412 kts | 321° |
| 2026-05-05 14:20 | 26.56434 | -82.35283 | 30064 ft | 412 kts | 321° |
| 2026-05-05 14:20 | 26.61004 | -82.39175 | 30061 ft | 413 kts | 321° |
| 2026-05-05 14:21 | 26.64807 | -82.42417 | 30063 ft | 413 kts | 321° |
| 2026-05-05 14:21 | 26.69379 | -82.46319 | 30063 ft | 414 kts | 321° |
| 2026-05-05 14:22 | 26.73962 | -82.50234 | 30064 ft | 414 kts | 321° |
| 2026-05-05 14:22 | 26.78545 | -82.54154 | 30061 ft | 415 kts | 321° |
| 2026-05-05 14:23 | 26.83135 | -82.58083 | 30053 ft | 415 kts | 321° |
| 2026-05-05 14:23 | 26.87718 | -82.62011 | 30061 ft | 415 kts | 321° |
| 2026-05-05 14:24 | 26.92280 | -82.65925 | 30066 ft | 416 kts | 321° |
| 2026-05-05 14:24 | 26.96875 | -82.69871 | 30069 ft | 416 kts | 321° |
| 2026-05-05 14:25 | 27.01468 | -82.73819 | 30059 ft | 416 kts | 321° |
| 2026-05-05 14:25 | 27.06069 | -82.77780 | 30068 ft | 416 kts | 321° |
| 2026-05-05 14:26 | 27.10664 | -82.81739 | 30062 ft | 416 kts | 320° |
| 2026-05-05 14:26 | 27.12718 | -82.84010 | 30071 ft | 415 kts | 308° |
| 2026-05-05 14:26 | 27.14275 | -82.86732 | 30053 ft | 417 kts | 297° |
| 2026-05-05 14:27 | 27.16323 | -82.92805 | 30068 ft | 419 kts | 292° |
| 2026-05-05 14:27 | 27.18231 | -82.98988 | 30066 ft | 419 kts | 292° |
| 2026-05-05 14:28 | 27.20161 | -83.05168 | 30075 ft | 419 kts | 292° |
| 2026-05-05 14:28 | 27.22116 | -83.11343 | 30073 ft | 419 kts | 292° |
| 2026-05-05 14:29 | 27.24081 | -83.17520 | 30073 ft | 420 kts | 292° |
| 2026-05-05 14:29 | 27.26046 | -83.23701 | 30069 ft | 420 kts | 292° |
| 2026-05-05 14:30 | 27.28009 | -83.29888 | 30073 ft | 420 kts | 292° |
| 2026-05-05 14:30 | 27.29970 | -83.36078 | 30074 ft | 420 kts | 292° |
| 2026-05-05 14:31 | 27.31931 | -83.42280 | 30066 ft | 421 kts | 292° |
| 2026-05-05 14:31 | 27.33889 | -83.48483 | 30071 ft | 421 kts | 292° |
| 2026-05-05 14:32 | 27.35833 | -83.54654 | 30067 ft | 421 kts | 292° |
| 2026-05-05 14:32 | 27.37787 | -83.60866 | 30075 ft | 421 kts | 292° |
| 2026-05-05 14:33 | 27.39739 | -83.67085 | 30072 ft | 422 kts | 292° |
| 2026-05-05 14:33 | 27.41693 | -83.73321 | 30069 ft | 422 kts | 292° |
| 2026-05-05 14:34 | 27.43642 | -83.79548 | 30077 ft | 422 kts | 291° |
| 2026-05-05 14:34 | 27.45590 | -83.85787 | 30070 ft | 422 kts | 291° |
| 2026-05-05 14:35 | 27.47535 | -83.92027 | 30077 ft | 422 kts | 291° |
| 2026-05-05 14:35 | 27.49477 | -83.98269 | 30076 ft | 423 kts | 291° |
| 2026-05-05 14:36 | 27.51419 | -84.04520 | 30076 ft | 423 kts | 291° |
| 2026-05-05 14:36 | 27.53358 | -84.10776 | 30061 ft | 423 kts | 291° |
| 2026-05-05 14:37 | 27.55295 | -84.17033 | 30071 ft | 423 kts | 291° |
| 2026-05-05 14:37 | 27.57231 | -84.23299 | 30072 ft | 423 kts | 291° |
| 2026-05-05 14:38 | 27.59163 | -84.29564 | 30073 ft | 423 kts | 291° |
| 2026-05-05 14:38 | 27.61081 | -84.35795 | 30074 ft | 424 kts | 291° |
| 2026-05-05 14:39 | 27.63011 | -84.42074 | 30068 ft | 424 kts | 291° |
| 2026-05-05 14:39 | 27.64937 | -84.48354 | 30076 ft | 424 kts | 291° |
| 2026-05-05 14:40 | 27.66861 | -84.54641 | 30074 ft | 424 kts | 291° |
| 2026-05-05 14:40 | 27.68784 | -84.60933 | 30072 ft | 424 kts | 291° |
| 2026-05-05 14:41 | 27.70705 | -84.67229 | 30068 ft | 424 kts | 291° |
| 2026-05-05 14:41 | 27.72623 | -84.73531 | 30076 ft | 424 kts | 291° |
| 2026-05-05 14:42 | 27.74536 | -84.79825 | 30070 ft | 424 kts | 291° |
| 2026-05-05 14:42 | 27.76448 | -84.86127 | 30072 ft | 424 kts | 291° |
| 2026-05-05 14:43 | 27.78342 | -84.92382 | 30072 ft | 424 kts | 291° |
| 2026-05-05 14:43 | 27.80246 | -84.98681 | 30077 ft | 424 kts | 291° |
| 2026-05-05 14:44 | 27.82149 | -85.04989 | 30072 ft | 424 kts | 291° |
| 2026-05-05 14:44 | 27.84047 | -85.11296 | 30076 ft | 424 kts | 291° |
| 2026-05-05 14:45 | 27.85931 | -85.17563 | 30071 ft | 423 kts | 291° |
| 2026-05-05 14:45 | 27.87822 | -85.23865 | 30077 ft | 423 kts | 291° |
| 2026-05-05 14:46 | 27.89720 | -85.30163 | 30078 ft | 423 kts | 291° |
| 2026-05-05 14:46 | 27.91635 | -85.36457 | 30075 ft | 423 kts | 291° |
| 2026-05-05 14:47 | 27.93546 | -85.42750 | 30072 ft | 423 kts | 291° |
| 2026-05-05 14:47 | 27.95452 | -85.49044 | 30062 ft | 423 kts | 291° |
| 2026-05-05 14:48 | 27.97352 | -85.55338 | 30071 ft | 423 kts | 291° |
| 2026-05-05 14:48 | 27.99250 | -85.61635 | 30077 ft | 423 kts | 291° |
| 2026-05-05 14:49 | 28.01131 | -85.67887 | 30073 ft | 422 kts | 291° |
| 2026-05-05 14:49 | 28.03023 | -85.74188 | 30061 ft | 422 kts | 291° |
| 2026-05-05 14:50 | 28.04797 | -85.80106 | 30057 ft | 422 kts | 291° |
| 2026-05-05 14:50 | 28.06679 | -85.86398 | 30071 ft | 422 kts | 291° |
| 2026-05-05 14:51 | 28.08560 | -85.92697 | 30064 ft | 422 kts | 291° |
| 2026-05-05 14:51 | 28.10436 | -85.98992 | 30057 ft | 422 kts | 291° |
| 2026-05-05 14:52 | 28.12310 | -86.05289 | 30063 ft | 422 kts | 290° |
| 2026-05-05 14:52 | 28.14182 | -86.11594 | 30063 ft | 422 kts | 290° |
| 2026-05-05 14:53 | 28.16037 | -86.17854 | 30062 ft | 422 kts | 290° |
| 2026-05-05 14:53 | 28.17902 | -86.24157 | 30059 ft | 422 kts | 290° |
| 2026-05-05 14:54 | 28.19762 | -86.30457 | 30057 ft | 422 kts | 290° |
| 2026-05-05 14:54 | 28.21623 | -86.36774 | 30059 ft | 422 kts | 290° |
| 2026-05-05 14:55 | 28.23479 | -86.43085 | 30063 ft | 422 kts | 290° |
| 2026-05-05 14:55 | 28.25319 | -86.49353 | 30059 ft | 422 kts | 290° |
| 2026-05-05 14:56 | 28.27170 | -86.55669 | 30062 ft | 422 kts | 290° |
| 2026-05-05 14:56 | 28.29019 | -86.61992 | 30062 ft | 422 kts | 290° |
| 2026-05-05 14:57 | 28.30863 | -86.68309 | 30061 ft | 422 kts | 290° |
| 2026-05-05 14:57 | 28.32710 | -86.74630 | 30057 ft | 422 kts | 290° |
| 2026-05-05 14:58 | 28.34563 | -86.80953 | 30063 ft | 422 kts | 290° |
| 2026-05-05 14:58 | 28.36414 | -86.87280 | 30060 ft | 422 kts | 290° |
| 2026-05-05 14:59 | 28.38262 | -86.93611 | 30060 ft | 422 kts | 290° |
| 2026-05-05 14:59 | 28.40104 | -86.99938 | 30063 ft | 422 kts | 290° |
| 2026-05-05 15:00 | 28.41635 | -87.05206 | 30057 ft | 422 kts | 290° |
| 2026-05-05 15:00 | 28.43773 | -87.12576 | 30062 ft | 422 kts | 290° |
| 2026-05-05 15:01 | 28.45607 | -87.18911 | 30061 ft | 422 kts | 290° |
| 2026-05-05 15:01 | 28.47436 | -87.25244 | 30062 ft | 422 kts | 290° |
| 2026-05-05 15:02 | 28.49267 | -87.31592 | 30059 ft | 422 kts | 290° |
| 2026-05-05 15:02 | 28.51079 | -87.37891 | 30056 ft | 421 kts | 290° |
| 2026-05-05 15:03 | 28.52898 | -87.44223 | 30061 ft | 421 kts | 290° |
| 2026-05-05 15:03 | 28.54712 | -87.50550 | 30065 ft | 421 kts | 290° |
| 2026-05-05 15:04 | 28.56525 | -87.56888 | 30059 ft | 421 kts | 289° |
| 2026-05-05 15:04 | 28.58332 | -87.63217 | 30058 ft | 421 kts | 289° |
| 2026-05-05 15:05 | 28.61039 | -87.72722 | 30059 ft | 421 kts | 289° |
| 2026-05-05 15:06 | 28.62839 | -87.79058 | 30053 ft | 420 kts | 289° |
| 2026-05-05 15:06 | 28.64623 | -87.85347 | 30056 ft | 420 kts | 289° |
| 2026-05-05 15:07 | 28.66416 | -87.91684 | 30055 ft | 420 kts | 289° |
| 2026-05-05 15:07 | 28.68205 | -87.98018 | 30058 ft | 420 kts | 289° |
| 2026-05-05 15:08 | 28.69991 | -88.04354 | 30055 ft | 420 kts | 289° |
| 2026-05-05 15:08 | 28.71771 | -88.10684 | 30055 ft | 419 kts | 289° |
| 2026-05-05 15:09 | 28.73548 | -88.17026 | 30055 ft | 419 kts | 289° |
| 2026-05-05 15:09 | 28.75019 | -88.22290 | 30058 ft | 419 kts | 289° |
| 2026-05-05 15:10 | 28.76786 | -88.28622 | 30055 ft | 419 kts | 289° |
| 2026-05-05 15:10 | 28.78549 | -88.34953 | 30053 ft | 419 kts | 289° |
| 2026-05-05 15:11 | 28.80310 | -88.41287 | 30051 ft | 419 kts | 289° |
| 2026-05-05 15:11 | 28.82066 | -88.47618 | 30049 ft | 419 kts | 289° |
| 2026-05-05 15:12 | 28.83818 | -88.53948 | 30049 ft | 418 kts | 289° |
| 2026-05-05 15:12 | 28.85568 | -88.60284 | 30051 ft | 418 kts | 289° |
| 2026-05-05 15:13 | 28.87315 | -88.66618 | 30044 ft | 418 kts | 289° |
| 2026-05-05 15:13 | 28.88946 | -88.72946 | 30046 ft | 419 kts | 286° |
| 2026-05-05 15:14 | 28.90325 | -88.79414 | 30043 ft | 419 kts | 285° |
| 2026-05-05 15:14 | 28.91670 | -88.85892 | 30046 ft | 419 kts | 285° |
| 2026-05-05 15:15 | 28.93029 | -88.92365 | 30044 ft | 419 kts | 285° |
| 2026-05-05 15:15 | 28.94397 | -88.98836 | 30039 ft | 419 kts | 285° |
| 2026-05-05 15:16 | 28.95763 | -89.05297 | 30043 ft | 419 kts | 285° |
| 2026-05-05 15:16 | 28.97119 | -89.11727 | 30046 ft | 419 kts | 285° |
| 2026-05-05 15:17 | 28.98481 | -89.18198 | 30041 ft | 419 kts | 285° |
| 2026-05-05 15:17 | 28.99839 | -89.24671 | 30035 ft | 419 kts | 285° |
| 2026-05-05 15:18 | 29.01193 | -89.31142 | 30029 ft | 419 kts | 285° |
| 2026-05-05 15:18 | 29.02544 | -89.37615 | 30033 ft | 419 kts | 285° |
| 2026-05-05 15:19 | 29.03893 | -89.44092 | 30035 ft | 419 kts | 285° |
| 2026-05-05 15:19 | 29.05238 | -89.50568 | 30034 ft | 419 kts | 285° |
| 2026-05-05 15:20 | 29.06581 | -89.57053 | 30027 ft | 419 kts | 285° |
| 2026-05-05 15:20 | 29.07920 | -89.63533 | 30031 ft | 419 kts | 285° |
| 2026-05-05 15:21 | 29.09248 | -89.69977 | 30029 ft | 419 kts | 285° |
| 2026-05-05 15:21 | 29.10582 | -89.76467 | 30028 ft | 419 kts | 285° |
| 2026-05-05 15:22 | 29.11912 | -89.82954 | 30025 ft | 419 kts | 285° |
| 2026-05-05 15:22 | 29.13240 | -89.89446 | 30022 ft | 419 kts | 285° |
| 2026-05-05 15:23 | 29.14563 | -89.95934 | 30022 ft | 419 kts | 285° |
| 2026-05-05 15:23 | 29.15885 | -90.02433 | 30019 ft | 419 kts | 285° |
| 2026-05-05 15:24 | 29.17202 | -90.08926 | 30020 ft | 419 kts | 285° |
| 2026-05-05 15:24 | 29.18426 | -90.15442 | 30021 ft | 419 kts | 283° |
| 2026-05-05 15:25 | 29.19505 | -90.21959 | 30021 ft | 419 kts | 283° |
| 2026-05-05 15:25 | 29.20585 | -90.28527 | 30021 ft | 419 kts | 283° |
| 2026-05-05 15:26 | 29.21676 | -90.35078 | 30021 ft | 419 kts | 283° |
| 2026-05-05 15:26 | 29.22774 | -90.41635 | 30014 ft | 419 kts | 283° |
| 2026-05-05 15:27 | 29.23872 | -90.48193 | 30014 ft | 419 kts | 283° |
| 2026-05-05 15:27 | 29.24967 | -90.54753 | 30010 ft | 419 kts | 283° |
| 2026-05-05 15:28 | 29.26057 | -90.61308 | 30010 ft | 419 kts | 283° |
| 2026-05-05 15:28 | 29.27147 | -90.67881 | 30008 ft | 419 kts | 283° |
| 2026-05-05 15:29 | 29.28225 | -90.74406 | 30010 ft | 419 kts | 283° |
| 2026-05-05 15:29 | 29.29308 | -90.80978 | 30003 ft | 420 kts | 283° |
| 2026-05-05 15:30 | 29.30389 | -90.87561 | 30002 ft | 420 kts | 283° |
| 2026-05-05 15:30 | 29.31465 | -90.94140 | 30001 ft | 420 kts | 282° |
| 2026-05-05 15:31 | 29.32539 | -91.00718 | 29999 ft | 420 kts | 282° |
| 2026-05-05 15:31 | 29.33608 | -91.07294 | 29997 ft | 420 kts | 282° |
| 2026-05-05 15:32 | 29.34670 | -91.13842 | 29996 ft | 420 kts | 282° |
| 2026-05-05 15:32 | 29.35735 | -91.20434 | 29995 ft | 420 kts | 282° |
| 2026-05-05 15:33 | 29.36794 | -91.27011 | 29996 ft | 420 kts | 282° |
| 2026-05-05 15:33 | 29.37851 | -91.33593 | 29993 ft | 419 kts | 282° |
| 2026-05-05 15:34 | 29.38904 | -91.40173 | 29993 ft | 419 kts | 282° |
| 2026-05-05 15:34 | 29.39951 | -91.46739 | 29987 ft | 418 kts | 282° |
| 2026-05-05 15:35 | 29.40992 | -91.53291 | 29986 ft | 417 kts | 282° |
| 2026-05-05 15:35 | 29.42028 | -91.59831 | 29984 ft | 415 kts | 282° |
| 2026-05-05 15:36 | 29.43050 | -91.66302 | 29984 ft | 414 kts | 282° |
| 2026-05-05 15:36 | 29.44072 | -91.72793 | 29977 ft | 412 kts | 282° |
| 2026-05-05 15:37 | 29.45087 | -91.79260 | 29978 ft | 411 kts | 282° |
| 2026-05-05 15:37 | 29.46096 | -91.85714 | 29978 ft | 411 kts | 282° |
| 2026-05-05 15:38 | 29.47101 | -91.92160 | 29977 ft | 410 kts | 282° |
| 2026-05-05 15:38 | 29.48102 | -91.98602 | 29968 ft | 410 kts | 282° |
| 2026-05-05 15:39 | 29.49101 | -92.05053 | 29974 ft | 410 kts | 281° |
| 2026-05-05 15:39 | 29.50097 | -92.11510 | 29971 ft | 411 kts | 281° |
| 2026-05-05 15:40 | 29.51090 | -92.17964 | 29971 ft | 411 kts | 281° |
| 2026-05-05 15:40 | 29.52081 | -92.24425 | 29971 ft | 411 kts | 281° |
| 2026-05-05 15:41 | 29.53067 | -92.30883 | 29967 ft | 411 kts | 281° |
| 2026-05-05 15:41 | 29.54044 | -92.37298 | 29963 ft | 411 kts | 281° |
| 2026-05-05 15:42 | 29.55025 | -92.43763 | 29966 ft | 411 kts | 281° |
| 2026-05-05 15:42 | 29.56003 | -92.50229 | 29972 ft | 411 kts | 281° |
| 2026-05-05 15:43 | 29.56978 | -92.56696 | 29965 ft | 411 kts | 281° |
| 2026-05-05 15:43 | 29.57949 | -92.63159 | 29963 ft | 410 kts | 281° |
| 2026-05-05 15:44 | 29.58916 | -92.69621 | 29969 ft | 410 kts | 281° |
| 2026-05-05 15:44 | 29.59880 | -92.76079 | 29966 ft | 410 kts | 281° |
| 2026-05-05 15:45 | 29.60840 | -92.82535 | 29969 ft | 409 kts | 281° |
| 2026-05-05 15:45 | 29.61795 | -92.88978 | 29964 ft | 409 kts | 281° |
| 2026-05-05 15:46 | 29.62740 | -92.95376 | 29956 ft | 408 kts | 281° |
| 2026-05-05 15:46 | 29.63684 | -93.01813 | 29953 ft | 408 kts | 281° |
| 2026-05-05 15:47 | 29.64624 | -93.08240 | 29953 ft | 408 kts | 281° |
| 2026-05-05 15:47 | 29.65562 | -93.14674 | 29961 ft | 408 kts | 280° |
| 2026-05-05 15:48 | 29.66496 | -93.21106 | 29966 ft | 408 kts | 280° |
| 2026-05-05 15:48 | 29.67429 | -93.27546 | 29964 ft | 408 kts | 280° |
| 2026-05-05 15:49 | 29.68358 | -93.33986 | 29952 ft | 408 kts | 280° |
| 2026-05-05 15:49 | 29.69278 | -93.40387 | 29958 ft | 408 kts | 280° |
| 2026-05-05 15:50 | 29.70201 | -93.46830 | 29956 ft | 408 kts | 280° |
| 2026-05-05 15:50 | 29.71120 | -93.53270 | 29951 ft | 408 kts | 280° |
| 2026-05-05 15:51 | 29.72037 | -93.59719 | 29951 ft | 408 kts | 280° |
| 2026-05-05 15:51 | 29.72952 | -93.66173 | 29949 ft | 409 kts | 280° |
| 2026-05-05 15:52 | 29.73863 | -93.72627 | 29939 ft | 409 kts | 280° |
| 2026-05-05 15:52 | 29.74773 | -93.79089 | 29936 ft | 409 kts | 280° |
| 2026-05-05 15:53 | 29.75678 | -93.85550 | 29939 ft | 409 kts | 280° |
| 2026-05-05 15:53 | 29.76581 | -93.92013 | 29936 ft | 409 kts | 280° |
| 2026-05-05 15:54 | 29.77481 | -93.98478 | 29934 ft | 409 kts | 280° |
| 2026-05-05 15:54 | 29.78373 | -94.04914 | 29925 ft | 409 kts | 279° |
| 2026-05-05 15:55 | 29.79122 | -94.10336 | 29928 ft | 409 kts | 279° |
| 2026-05-05 15:55 | 29.80015 | -94.16817 | 29937 ft | 410 kts | 279° |
| 2026-05-05 15:56 | 29.80903 | -94.23295 | 29942 ft | 410 kts | 279° |
| 2026-05-05 15:56 | 29.81783 | -94.29731 | 29920 ft | 410 kts | 279° |
| 2026-05-05 15:57 | 29.82667 | -94.36226 | 29927 ft | 410 kts | 279° |
| 2026-05-05 15:57 | 29.83548 | -94.42711 | 29931 ft | 409 kts | 279° |
| 2026-05-05 15:58 | 29.84425 | -94.49196 | 29925 ft | 410 kts | 279° |
| 2026-05-05 15:58 | 29.85295 | -94.55638 | 29917 ft | 410 kts | 279° |
| 2026-05-05 15:59 | 29.86169 | -94.62127 | 29921 ft | 409 kts | 279° |
| 2026-05-05 15:59 | 29.87040 | -94.68617 | 29910 ft | 409 kts | 279° |
| 2026-05-05 16:00 | 29.87907 | -94.75106 | 29917 ft | 409 kts | 279° |
| 2026-05-05 16:00 | 29.88770 | -94.81589 | 29912 ft | 409 kts | 279° |
| 2026-05-05 16:01 | 29.89630 | -94.88080 | 29900 ft | 409 kts | 279° |
| 2026-05-05 16:01 | 29.90482 | -94.94531 | 29894 ft | 409 kts | 279° |
| 2026-05-05 16:02 | 29.91335 | -95.01014 | 29900 ft | 409 kts | 279° |
| 2026-05-05 16:02 | 29.92185 | -95.07502 | 29898 ft | 409 kts | 279° |
| 2026-05-05 16:03 | 29.93032 | -95.13994 | 29894 ft | 409 kts | 279° |
| 2026-05-05 16:03 | 29.93875 | -95.20478 | 29900 ft | 409 kts | 279° |
| 2026-05-05 16:04 | 29.94716 | -95.26963 | 29896 ft | 409 kts | 279° |
| 2026-05-05 16:04 | 29.95553 | -95.33449 | 29901 ft | 409 kts | 279° |
| 2026-05-05 16:05 | 29.96495 | -95.39925 | 29900 ft | 409 kts | 281° |
| 2026-05-05 16:05 | 29.97560 | -95.46333 | 29898 ft | 409 kts | 281° |
| 2026-05-05 16:06 | 29.98621 | -95.52773 | 29915 ft | 409 kts | 281° |
| 2026-05-05 16:06 | 29.99663 | -95.59228 | 29905 ft | 409 kts | 280° |
| 2026-05-05 16:07 | 30.00693 | -95.65675 | 29908 ft | 409 kts | 280° |
| 2026-05-05 16:07 | 30.01720 | -95.72130 | 29885 ft | 409 kts | 280° |
| 2026-05-05 16:08 | 30.02742 | -95.78574 | 29859 ft | 408 kts | 280° |
| 2026-05-05 16:08 | 30.03761 | -95.85023 | 29828 ft | 408 kts | 280° |
| 2026-05-05 16:09 | 30.04779 | -95.91482 | 29817 ft | 408 kts | 280° |
| 2026-05-05 16:09 | 30.05792 | -95.97937 | 29792 ft | 408 kts | 280° |
| 2026-05-05 16:10 | 30.06797 | -96.04351 | 29761 ft | 408 kts | 280° |
| 2026-05-05 16:10 | 30.07801 | -96.10804 | 29727 ft | 408 kts | 280° |
| 2026-05-05 16:11 | 30.08796 | -96.17255 | 29696 ft | 408 kts | 280° |
| 2026-05-05 16:12 | 30.10777 | -96.30146 | 29703 ft | 407 kts | 280° |
| 2026-05-05 16:13 | 30.13223 | -96.46180 | 29731 ft | 406 kts | 280° |
| 2026-05-05 16:13 | 30.14197 | -96.52604 | 29733 ft | 406 kts | 279° |
| 2026-05-05 16:14 | 30.16136 | -96.65456 | 29808 ft | 405 kts | 279° |
| 2026-05-05 16:15 | 30.18060 | -96.78302 | 29877 ft | 405 kts | 279° |
| 2026-05-05 16:16 | 30.19972 | -96.91150 | 29925 ft | 405 kts | 279° |
| 2026-05-05 16:17 | 30.21397 | -97.00783 | 29930 ft | 405 kts | 279° |
| 2026-05-05 16:18 | 30.22815 | -97.10415 | 29912 ft | 405 kts | 279° |
| 2026-05-05 16:19 | 30.24228 | -97.20056 | 29879 ft | 405 kts | 279° |
| 2026-05-05 16:19 | 30.25629 | -97.29664 | 29841 ft | 405 kts | 279° |
| 2026-05-05 16:20 | 30.27492 | -97.42525 | 29851 ft | 405 kts | 279° |
| 2026-05-05 16:22 | 30.29801 | -97.58589 | 29879 ft | 405 kts | 279° |
| 2026-05-05 16:23 | 30.31635 | -97.71450 | 29880 ft | 406 kts | 278° |
| 2026-05-05 16:23 | 30.33006 | -97.81136 | 29865 ft | 407 kts | 278° |
| 2026-05-05 16:24 | 30.33915 | -97.87578 | 29897 ft | 408 kts | 277° |
| 2026-05-05 16:25 | 30.35282 | -97.97316 | 29908 ft | 409 kts | 277° |
| 2026-05-05 16:25 | 30.36643 | -98.07062 | 29900 ft | 409 kts | 277° |
| 2026-05-05 16:26 | 30.38443 | -98.20046 | 29875 ft | 408 kts | 277° |
| 2026-05-05 16:27 | 30.39338 | -98.26537 | 29883 ft | 408 kts | 277° |
| 2026-05-05 16:27 | 30.40229 | -98.33015 | 29889 ft | 407 kts | 277° |
| 2026-05-05 16:28 | 30.41117 | -98.39495 | 29892 ft | 407 kts | 277° |
| 2026-05-05 16:28 | 30.42003 | -98.45968 | 29888 ft | 407 kts | 277° |
| 2026-05-05 16:29 | 30.42879 | -98.52398 | 29882 ft | 407 kts | 277° |
| 2026-05-05 16:29 | 30.43759 | -98.58877 | 29871 ft | 407 kts | 277° |
| 2026-05-05 16:30 | 30.44635 | -98.65351 | 29855 ft | 407 kts | 277° |
| 2026-05-05 16:30 | 30.45508 | -98.71834 | 29848 ft | 406 kts | 277° |
| 2026-05-05 16:31 | 30.46377 | -98.78311 | 29834 ft | 406 kts | 276° |
| 2026-05-05 16:31 | 30.47238 | -98.84747 | 29835 ft | 406 kts | 276° |
| 2026-05-05 16:32 | 30.48100 | -98.91217 | 29831 ft | 406 kts | 276° |
| 2026-05-05 16:32 | 30.48959 | -98.97690 | 29835 ft | 406 kts | 276° |
| 2026-05-05 16:33 | 30.49814 | -99.04165 | 29836 ft | 406 kts | 276° |
| 2026-05-05 16:33 | 30.50665 | -99.10630 | 29830 ft | 406 kts | 276° |
| 2026-05-05 16:34 | 30.51513 | -99.17096 | 29840 ft | 406 kts | 276° |
| 2026-05-05 16:34 | 30.52358 | -99.23569 | 29829 ft | 406 kts | 276° |
| 2026-05-05 16:35 | 30.53200 | -99.30044 | 29824 ft | 406 kts | 276° |
| 2026-05-05 16:35 | 30.54034 | -99.36479 | 29834 ft | 406 kts | 276° |
| 2026-05-05 16:36 | 30.54871 | -99.42960 | 29838 ft | 405 kts | 276° |
| 2026-05-05 16:36 | 30.55703 | -99.49432 | 29857 ft | 405 kts | 276° |
| 2026-05-05 16:37 | 30.56531 | -99.55906 | 29878 ft | 405 kts | 276° |
| 2026-05-05 16:37 | 30.57358 | -99.62387 | 29893 ft | 406 kts | 275° |
| 2026-05-05 16:38 | 30.58175 | -99.68827 | 29889 ft | 406 kts | 275° |
| 2026-05-05 16:38 | 30.58995 | -99.75304 | 29896 ft | 406 kts | 275° |
| 2026-05-05 16:39 | 30.59812 | -99.81792 | 29896 ft | 406 kts | 275° |
| 2026-05-05 16:39 | 30.60619 | -99.88283 | 29884 ft | 406 kts | 275° |
| 2026-05-05 16:40 | 30.61419 | -99.94775 | 29874 ft | 406 kts | 275° |
| 2026-05-05 16:40 | 30.62211 | -100.01224 | 29860 ft | 406 kts | 275° |
| 2026-05-05 16:41 | 30.63006 | -100.07715 | 29845 ft | 406 kts | 275° |
| 2026-05-05 16:41 | 30.63797 | -100.14214 | 29826 ft | 406 kts | 275° |
| 2026-05-05 16:42 | 30.64453 | -100.19609 | 29830 ft | 406 kts | 275° |
| 2026-05-05 16:42 | 30.65239 | -100.26109 | 29835 ft | 406 kts | 275° |
| 2026-05-05 16:43 | 30.66021 | -100.32604 | 29859 ft | 406 kts | 274° |
| 2026-05-05 16:43 | 30.66801 | -100.39102 | 29882 ft | 406 kts | 274° |
| 2026-05-05 16:44 | 30.67576 | -100.45600 | 29904 ft | 406 kts | 274° |
| 2026-05-05 16:44 | 30.68349 | -100.52095 | 29929 ft | 406 kts | 274° |
| 2026-05-05 16:45 | 30.69118 | -100.58596 | 29939 ft | 406 kts | 274° |
| 2026-05-05 16:45 | 30.69879 | -100.65095 | 29938 ft | 406 kts | 274° |
| 2026-05-05 16:46 | 30.70647 | -100.71606 | 29931 ft | 406 kts | 274° |
| 2026-05-05 16:46 | 30.71404 | -100.78070 | 29916 ft | 406 kts | 274° |
| 2026-05-05 16:47 | 30.72161 | -100.84577 | 29890 ft | 406 kts | 274° |
| 2026-05-05 16:47 | 30.72917 | -100.91084 | 29876 ft | 406 kts | 274° |
| 2026-05-05 16:48 | 30.73672 | -100.97598 | 29907 ft | 406 kts | 274° |
| 2026-05-05 16:48 | 30.74422 | -101.04099 | 29920 ft | 406 kts | 273° |
| 2026-05-05 16:49 | 30.75169 | -101.10603 | 29944 ft | 406 kts | 273° |
| 2026-05-05 16:49 | 30.75907 | -101.17061 | 29946 ft | 406 kts | 273° |
| 2026-05-05 16:50 | 30.76647 | -101.23569 | 29945 ft | 406 kts | 273° |
| 2026-05-05 16:50 | 30.77384 | -101.30080 | 29946 ft | 406 kts | 273° |
| 2026-05-05 16:51 | 30.78118 | -101.36584 | 29915 ft | 406 kts | 273° |
| 2026-05-05 16:51 | 30.78848 | -101.43094 | 29885 ft | 406 kts | 273° |
| 2026-05-05 16:52 | 30.79575 | -101.49604 | 29859 ft | 406 kts | 273° |
| 2026-05-05 16:52 | 30.80295 | -101.56078 | 29819 ft | 406 kts | 272° |
| 2026-05-05 16:53 | 30.81016 | -101.62589 | 29799 ft | 405 kts | 272° |
| 2026-05-05 16:53 | 30.81732 | -101.69083 | 29785 ft | 404 kts | 272° |
| 2026-05-05 16:54 | 30.82441 | -101.75556 | 29787 ft | 403 kts | 272° |
| 2026-05-05 16:54 | 30.83146 | -101.82016 | 29790 ft | 402 kts | 272° |
| 2026-05-05 16:55 | 30.83847 | -101.88467 | 29789 ft | 401 kts | 272° |
| 2026-05-05 16:55 | 30.84543 | -101.94907 | 29799 ft | 401 kts | 272° |
| 2026-05-05 16:56 | 30.85235 | -102.01348 | 29784 ft | 401 kts | 272° |
| 2026-05-05 16:56 | 30.85927 | -102.07808 | 29790 ft | 402 kts | 272° |
| 2026-05-05 16:57 | 30.86611 | -102.14225 | 29788 ft | 402 kts | 272° |
| 2026-05-05 16:57 | 30.87296 | -102.20687 | 29795 ft | 402 kts | 272° |
| 2026-05-05 16:58 | 30.87979 | -102.27155 | 29786 ft | 402 kts | 271° |
| 2026-05-05 16:58 | 30.88658 | -102.33620 | 29792 ft | 402 kts | 271° |
| 2026-05-05 16:59 | 30.89333 | -102.40077 | 29794 ft | 401 kts | 271° |
| 2026-05-05 16:59 | 30.90005 | -102.46533 | 29792 ft | 401 kts | 271° |
| 2026-05-05 17:00 | 30.90673 | -102.52987 | 29808 ft | 401 kts | 271° |
| 2026-05-05 17:00 | 30.91332 | -102.59384 | 29841 ft | 400 kts | 271° |
| 2026-05-05 17:01 | 30.91991 | -102.65823 | 29875 ft | 400 kts | 271° |
| 2026-05-05 17:01 | 30.92649 | -102.72269 | 29902 ft | 400 kts | 271° |
| 2026-05-05 17:02 | 30.93302 | -102.78702 | 29928 ft | 399 kts | 271° |
| 2026-05-05 17:02 | 30.93951 | -102.85136 | 29952 ft | 399 kts | 271° |
| 2026-05-05 17:03 | 30.94597 | -102.91557 | 29955 ft | 399 kts | 271° |
| 2026-05-05 17:03 | 30.95345 | -102.97966 | 29949 ft | 402 kts | 276° |
| 2026-05-05 17:04 | 30.96997 | -103.04229 | 29941 ft | 408 kts | 281° |
| 2026-05-05 17:04 | 30.98755 | -103.10510 | 29904 ft | 408 kts | 280° |
| 2026-05-05 17:05 | 31.00496 | -103.16798 | 29872 ft | 408 kts | 280° |
| 2026-05-05 17:05 | 31.02227 | -103.23095 | 29843 ft | 407 kts | 280° |
| 2026-05-05 17:06 | 31.03951 | -103.29388 | 29806 ft | 407 kts | 280° |
| 2026-05-05 17:06 | 31.05674 | -103.35686 | 29811 ft | 407 kts | 280° |
| 2026-05-05 17:07 | 31.07378 | -103.41932 | 29828 ft | 407 kts | 280° |
| 2026-05-05 17:07 | 31.09091 | -103.48221 | 29845 ft | 406 kts | 280° |
| 2026-05-05 17:08 | 31.10798 | -103.54503 | 29855 ft | 406 kts | 279° |
| 2026-05-05 17:08 | 31.12502 | -103.60788 | 29862 ft | 406 kts | 279° |
| 2026-05-05 17:09 | 31.14202 | -103.67070 | 29859 ft | 406 kts | 279° |
| 2026-05-05 17:09 | 31.15898 | -103.73354 | 29850 ft | 406 kts | 279° |
| 2026-05-05 17:10 | 31.17592 | -103.79641 | 29837 ft | 406 kts | 279° |
| 2026-05-05 17:10 | 31.19271 | -103.85887 | 29829 ft | 406 kts | 279° |
| 2026-05-05 17:11 | 31.20960 | -103.92186 | 29832 ft | 407 kts | 279° |
| 2026-05-05 17:11 | 31.22651 | -103.98505 | 29833 ft | 407 kts | 279° |
| 2026-05-05 17:12 | 31.24339 | -104.04825 | 29833 ft | 407 kts | 279° |
| 2026-05-05 17:12 | 31.26023 | -104.11140 | 29840 ft | 407 kts | 279° |
| 2026-05-05 17:13 | 31.27703 | -104.17458 | 29842 ft | 406 kts | 279° |
| 2026-05-05 17:13 | 31.29376 | -104.23762 | 29834 ft | 406 kts | 279° |
| 2026-05-05 17:14 | 31.31046 | -104.30072 | 29834 ft | 406 kts | 278° |
| 2026-05-05 17:14 | 31.32701 | -104.36335 | 29844 ft | 406 kts | 278° |
| 2026-05-05 17:15 | 31.34365 | -104.42651 | 29848 ft | 406 kts | 278° |
| 2026-05-05 17:15 | 31.36024 | -104.48960 | 29838 ft | 406 kts | 278° |
| 2026-05-05 17:16 | 31.37679 | -104.55265 | 29833 ft | 405 kts | 278° |
| 2026-05-05 17:16 | 31.39327 | -104.61559 | 29834 ft | 404 kts | 278° |
| 2026-05-05 17:17 | 31.40975 | -104.67869 | 29843 ft | 404 kts | 278° |
| 2026-05-05 17:17 | 31.42605 | -104.74121 | 29843 ft | 404 kts | 278° |
| 2026-05-05 17:18 | 31.44242 | -104.80416 | 29836 ft | 404 kts | 278° |
| 2026-05-05 17:18 | 31.45876 | -104.86711 | 29839 ft | 404 kts | 277° |
| 2026-05-05 17:19 | 31.47495 | -104.92998 | 29850 ft | 401 kts | 277° |
| 2026-05-05 17:19 | 31.49104 | -104.99255 | 29828 ft | 401 kts | 283° |
| 2026-05-05 17:20 | 31.50728 | -105.05512 | 29833 ft | 402 kts | 283° |
| 2026-05-05 17:20 | 31.52351 | -105.11805 | 29834 ft | 404 kts | 283° |
| 2026-05-05 17:21 | 31.53972 | -105.18119 | 29823 ft | 404 kts | 283° |
| 2026-05-05 17:22 | 31.56397 | -105.27594 | 29816 ft | 404 kts | 283° |
| 2026-05-05 17:22 | 31.58007 | -105.33902 | 29824 ft | 403 kts | 283° |
| 2026-05-05 17:23 | 31.59609 | -105.40198 | 29818 ft | 403 kts | 282° |
| 2026-05-05 17:23 | 31.61198 | -105.46458 | 29816 ft | 403 kts | 282° |
| 2026-05-05 17:24 | 31.62790 | -105.52752 | 29818 ft | 402 kts | 282° |
| 2026-05-05 17:24 | 31.64381 | -105.59051 | 29818 ft | 403 kts | 282° |
| 2026-05-05 17:25 | 31.65970 | -105.65360 | 29815 ft | 403 kts | 282° |
| 2026-05-05 17:25 | 31.67556 | -105.71671 | 29813 ft | 403 kts | 282° |
| 2026-05-05 17:26 | 31.69141 | -105.77992 | 29816 ft | 403 kts | 282° |
| 2026-05-05 17:26 | 31.70724 | -105.84322 | 29813 ft | 404 kts | 281° |
| 2026-05-05 17:27 | 31.72293 | -105.90607 | 29810 ft | 404 kts | 281° |
| 2026-05-05 17:27 | 31.73867 | -105.96927 | 29813 ft | 403 kts | 281° |
| 2026-05-05 17:28 | 31.75437 | -106.03246 | 29853 ft | 403 kts | 281° |
| 2026-05-05 17:28 | 31.77009 | -106.09587 | 29897 ft | 403 kts | 281° |
| 2026-05-05 17:29 | 31.78572 | -106.15908 | 29933 ft | 403 kts | 281° |
| 2026-05-05 17:29 | 31.79868 | -106.21162 | 29971 ft | 402 kts | 281° |
| 2026-05-05 17:30 | 31.81390 | -106.27483 | 30011 ft | 401 kts | 278° |
| 2026-05-05 17:30 | 31.82065 | -106.33924 | 30010 ft | 396 kts | 271° |
| 2026-05-05 17:31 | 31.82526 | -106.40378 | 30016 ft | 396 kts | 271° |
| 2026-05-05 17:31 | 31.83003 | -106.46838 | 29994 ft | 396 kts | 271° |
| 2026-05-05 17:32 | 31.83486 | -106.53296 | 29973 ft | 398 kts | 271° |
| 2026-05-05 17:32 | 31.83962 | -106.59775 | 30009 ft | 398 kts | 271° |
| 2026-05-05 17:33 | 31.84434 | -106.66213 | 30032 ft | 397 kts | 270° |
| 2026-05-05 17:33 | 31.84905 | -106.72692 | 30028 ft | 397 kts | 270° |
| 2026-05-05 17:34 | 31.85374 | -106.79170 | 30034 ft | 397 kts | 270° |
| 2026-05-05 17:34 | 31.85839 | -106.85656 | 29993 ft | 398 kts | 270° |
| 2026-05-05 17:35 | 31.86301 | -106.92141 | 29957 ft | 398 kts | 270° |
| 2026-05-05 17:35 | 31.86761 | -106.98643 | 29903 ft | 399 kts | 270° |
| 2026-05-05 17:36 | 31.87218 | -107.05150 | 29871 ft | 400 kts | 270° |
| 2026-05-05 17:36 | 31.87672 | -107.11663 | 29822 ft | 399 kts | 270° |
| 2026-05-05 17:37 | 31.88120 | -107.18123 | 29827 ft | 398 kts | 270° |
| 2026-05-05 17:37 | 31.88568 | -107.24619 | 29829 ft | 399 kts | 269° |
| 2026-05-05 17:38 | 31.89010 | -107.31125 | 29836 ft | 399 kts | 269° |
| 2026-05-05 17:38 | 31.89450 | -107.37645 | 29838 ft | 399 kts | 269° |
| 2026-05-05 17:39 | 31.89888 | -107.44162 | 29846 ft | 399 kts | 269° |
| 2026-05-05 17:39 | 31.90322 | -107.50667 | 29842 ft | 399 kts | 269° |
| 2026-05-05 17:40 | 31.90752 | -107.57170 | 29851 ft | 399 kts | 269° |
| 2026-05-05 17:40 | 31.91178 | -107.63678 | 29855 ft | 398 kts | 269° |
| 2026-05-05 17:41 | 31.91600 | -107.70140 | 29866 ft | 398 kts | 269° |
| 2026-05-05 17:41 | 31.92041 | -107.76649 | 29867 ft | 400 kts | 271° |
| 2026-05-05 17:42 | 31.93309 | -107.83094 | 29875 ft | 407 kts | 279° |
| 2026-05-05 17:42 | 31.94880 | -107.89496 | 29866 ft | 407 kts | 279° |
| 2026-05-05 17:43 | 31.96427 | -107.95898 | 29869 ft | 406 kts | 279° |
| 2026-05-05 17:43 | 31.97962 | -108.02305 | 29856 ft | 406 kts | 279° |
| 2026-05-05 17:44 | 31.99492 | -108.08714 | 29860 ft | 406 kts | 278° |
| 2026-05-05 17:44 | 32.01010 | -108.15092 | 29859 ft | 406 kts | 278° |
| 2026-05-05 17:45 | 32.02530 | -108.21490 | 29864 ft | 406 kts | 278° |
| 2026-05-05 17:45 | 32.04051 | -108.27908 | 29874 ft | 406 kts | 278° |
| 2026-05-05 17:46 | 32.05567 | -108.34321 | 29870 ft | 406 kts | 278° |
| 2026-05-05 17:46 | 32.07078 | -108.40729 | 29870 ft | 406 kts | 278° |
| 2026-05-05 17:46 | 32.07836 | -108.43947 | 29996 ft | 406 kts | 277° |
| 2026-05-05 17:47 | 32.08590 | -108.47157 | 29968 ft | 407 kts | 276° |
| 2026-05-05 17:47 | 32.10100 | -108.53597 | 29942 ft | 408 kts | 276° |
| 2026-05-05 17:48 | 32.11610 | -108.60049 | 29960 ft | 408 kts | 276° |
| 2026-05-05 17:48 | 32.13105 | -108.66449 | 29979 ft | 407 kts | 276° |
| 2026-05-05 17:49 | 32.14608 | -108.72897 | 29988 ft | 407 kts | 276° |
| 2026-05-05 17:49 | 32.16098 | -108.79311 | 29998 ft | 406 kts | 276° |
| 2026-05-05 17:50 | 32.17594 | -108.85768 | 29980 ft | 407 kts | 276° |
| 2026-05-05 17:50 | 32.19086 | -108.92225 | 29964 ft | 407 kts | 276° |
| 2026-05-05 17:51 | 32.20575 | -108.98679 | 29931 ft | 407 kts | 276° |
| 2026-05-05 17:51 | 32.22058 | -109.05127 | 29909 ft | 406 kts | 276° |
| 2026-05-05 17:52 | 32.23535 | -109.11569 | 29876 ft | 406 kts | 276° |
| 2026-05-05 17:52 | 32.25010 | -109.18011 | 29879 ft | 406 kts | 276° |
| 2026-05-05 17:53 | 32.26479 | -109.24444 | 29874 ft | 405 kts | 276° |
| 2026-05-05 17:53 | 32.28419 | -109.30769 | 29889 ft | 413 kts | 282° |
| 2026-05-05 17:54 | 32.30639 | -109.37024 | 29888 ft | 412 kts | 282° |
| 2026-05-05 17:54 | 32.32827 | -109.43233 | 29882 ft | 411 kts | 282° |
| 2026-05-05 17:55 | 32.35028 | -109.49523 | 29887 ft | 411 kts | 282° |
| 2026-05-05 17:55 | 32.37189 | -109.55726 | 29888 ft | 410 kts | 282° |
| 2026-05-05 17:56 | 32.39361 | -109.61977 | 29891 ft | 411 kts | 282° |
| 2026-05-05 17:56 | 32.41530 | -109.68228 | 29892 ft | 410 kts | 282° |
| 2026-05-05 17:57 | 32.43693 | -109.74474 | 29903 ft | 410 kts | 282° |
| 2026-05-05 17:57 | 32.45858 | -109.80736 | 29900 ft | 411 kts | 282° |
| 2026-05-05 17:58 | 32.48018 | -109.86999 | 29901 ft | 411 kts | 282° |
| 2026-05-05 17:58 | 32.50162 | -109.93224 | 29900 ft | 410 kts | 281° |
| 2026-05-05 17:59 | 32.52316 | -109.99490 | 29903 ft | 410 kts | 281° |
| 2026-05-05 17:59 | 32.54464 | -110.05752 | 29909 ft | 409 kts | 281° |
| 2026-05-05 18:00 | 32.56589 | -110.11959 | 29911 ft | 409 kts | 281° |
| 2026-05-05 18:00 | 32.58737 | -110.18246 | 29901 ft | 409 kts | 281° |
| 2026-05-05 18:01 | 32.60855 | -110.24453 | 29903 ft | 408 kts | 281° |
| 2026-05-05 18:01 | 32.62982 | -110.30705 | 29910 ft | 409 kts | 281° |
| 2026-05-05 18:02 | 32.65113 | -110.36984 | 29904 ft | 410 kts | 280° |
| 2026-05-05 18:02 | 32.67235 | -110.43226 | 29927 ft | 407 kts | 281° |
| 2026-05-05 18:03 | 32.69346 | -110.49470 | 30147 ft | 406 kts | 281° |
| 2026-05-05 18:03 | 32.70398 | -110.52577 | 30323 ft | 404 kts | 280° |
| 2026-05-05 18:03 | 32.71442 | -110.55664 | 30514 ft | 401 kts | 280° |
| 2026-05-05 18:03 | 32.72466 | -110.58694 | 30706 ft | 399 kts | 280° |
| 2026-05-05 18:04 | 32.73511 | -110.61793 | 30902 ft | 397 kts | 280° |
| 2026-05-05 18:04 | 32.74534 | -110.64829 | 31092 ft | 395 kts | 280° |
| 2026-05-05 18:04 | 32.75552 | -110.67854 | 31277 ft | 393 kts | 280° |
| 2026-05-05 18:04 | 32.76560 | -110.70852 | 31472 ft | 390 kts | 280° |
| 2026-05-05 18:05 | 32.77550 | -110.73802 | 31680 ft | 388 kts | 279° |
| 2026-05-05 18:05 | 32.78546 | -110.76772 | 31876 ft | 386 kts | 279° |
| 2026-05-05 18:05 | 32.79540 | -110.79744 | 31905 ft | 389 kts | 279° |
| 2026-05-05 18:06 | 32.81542 | -110.85755 | 31928 ft | 393 kts | 279° |
| 2026-05-05 18:06 | 32.83570 | -110.91840 | 31937 ft | 397 kts | 279° |
| 2026-05-05 18:07 | 32.85611 | -110.97958 | 31940 ft | 398 kts | 279° |
| 2026-05-05 18:07 | 32.87653 | -111.04086 | 31940 ft | 398 kts | 279° |
| 2026-05-05 18:08 | 32.89677 | -111.10176 | 31942 ft | 398 kts | 279° |
| 2026-05-05 18:08 | 32.91706 | -111.16293 | 31936 ft | 397 kts | 279° |
| 2026-05-05 18:09 | 32.93725 | -111.22396 | 31940 ft | 396 kts | 279° |
| 2026-05-05 18:09 | 32.95736 | -111.28486 | 31937 ft | 395 kts | 279° |
| 2026-05-05 18:10 | 32.97738 | -111.34561 | 31933 ft | 394 kts | 279° |
| 2026-05-05 18:10 | 32.99736 | -111.40638 | 31934 ft | 393 kts | 279° |
| 2026-05-05 18:11 | 33.01727 | -111.46704 | 31937 ft | 392 kts | 278° |
| 2026-05-05 18:11 | 33.03711 | -111.52761 | 31941 ft | 392 kts | 278° |
| 2026-05-05 18:12 | 33.05690 | -111.58814 | 31938 ft | 392 kts | 278° |
| 2026-05-05 18:12 | 33.07653 | -111.64830 | 31950 ft | 392 kts | 278° |
| 2026-05-05 18:13 | 33.09627 | -111.70891 | 31948 ft | 392 kts | 278° |
| 2026-05-05 18:13 | 33.11599 | -111.76957 | 31956 ft | 392 kts | 278° |
| 2026-05-05 18:14 | 33.13573 | -111.83045 | 31970 ft | 394 kts | 278° |
| 2026-05-05 18:14 | 33.15552 | -111.89155 | 31960 ft | 394 kts | 278° |
| 2026-05-05 18:15 | 33.17524 | -111.95254 | 31952 ft | 394 kts | 278° |
| 2026-05-05 18:15 | 33.19493 | -112.01355 | 31948 ft | 394 kts | 278° |
| 2026-05-05 18:16 | 33.21447 | -112.07425 | 31945 ft | 394 kts | 278° |
| 2026-05-05 18:16 | 33.23090 | -112.12537 | 31930 ft | 394 kts | 278° |
| 2026-05-05 18:17 | 33.25034 | -112.18597 | 31931 ft | 394 kts | 278° |
| 2026-05-05 18:17 | 33.26993 | -112.24715 | 31966 ft | 396 kts | 278° |
| 2026-05-05 18:18 | 33.28973 | -112.30931 | 31990 ft | 403 kts | 278° |
| 2026-05-05 18:18 | 33.30962 | -112.37135 | 31970 ft | 393 kts | 278° |
| 2026-05-05 18:19 | 33.32896 | -112.43201 | 31972 ft | 390 kts | 277° |
| 2026-05-05 18:19 | 33.34819 | -112.49272 | 31965 ft | 390 kts | 277° |
| 2026-05-05 18:20 | 33.36741 | -112.55346 | 31969 ft | 391 kts | 277° |
| 2026-05-05 18:20 | 33.38668 | -112.61442 | 31981 ft | 392 kts | 278° |
| 2026-05-05 18:21 | 33.40599 | -112.67563 | 31984 ft | 394 kts | 278° |
| 2026-05-05 18:21 | 33.42540 | -112.73720 | 31984 ft | 396 kts | 278° |
| 2026-05-05 18:22 | 33.44485 | -112.79903 | 31980 ft | 397 kts | 278° |
| 2026-05-05 18:22 | 33.46491 | -112.86049 | 31962 ft | 401 kts | 280° |
| 2026-05-05 18:23 | 33.48722 | -112.92192 | 31952 ft | 403 kts | 281° |
| 2026-05-05 18:23 | 33.50978 | -112.98356 | 31943 ft | 403 kts | 281° |
| 2026-05-05 18:24 | 33.53202 | -113.04515 | 31931 ft | 403 kts | 281° |
| 2026-05-05 18:24 | 33.55415 | -113.10698 | 31916 ft | 404 kts | 281° |
| 2026-05-05 18:25 | 33.57627 | -113.16902 | 31920 ft | 405 kts | 281° |
| 2026-05-05 18:25 | 33.59824 | -113.23071 | 31938 ft | 405 kts | 281° |
| 2026-05-05 18:26 | 33.62034 | -113.29290 | 31951 ft | 406 kts | 281° |
| 2026-05-05 18:26 | 33.64244 | -113.35522 | 31971 ft | 406 kts | 281° |
| 2026-05-05 18:27 | 33.66457 | -113.41775 | 31986 ft | 407 kts | 282° |
| 2026-05-05 18:27 | 33.68670 | -113.48039 | 31998 ft | 408 kts | 282° |
| 2026-05-05 18:28 | 33.71997 | -113.57484 | 31995 ft | 412 kts | 282° |
| 2026-05-05 18:28 | 33.74237 | -113.63857 | 31985 ft | 415 kts | 282° |
| 2026-05-05 18:29 | 33.76489 | -113.70268 | 31968 ft | 416 kts | 283° |
| 2026-05-05 18:29 | 33.78738 | -113.76687 | 31960 ft | 416 kts | 283° |
| 2026-05-05 18:30 | 33.80975 | -113.83128 | 31938 ft | 418 kts | 283° |
| 2026-05-05 18:30 | 33.83158 | -113.89598 | 31910 ft | 421 kts | 283° |
| 2026-05-05 18:31 | 33.85368 | -113.96160 | 31907 ft | 423 kts | 283° |
| 2026-05-05 18:31 | 33.87586 | -114.02737 | 31903 ft | 425 kts | 283° |
| 2026-05-05 18:32 | 33.89807 | -114.09333 | 31909 ft | 426 kts | 283° |
| 2026-05-05 18:32 | 33.91479 | -114.16078 | 31917 ft | 417 kts | 275° |
| 2026-05-05 18:33 | 33.92569 | -114.22932 | 31901 ft | 417 kts | 274° |
| 2026-05-05 18:33 | 33.93657 | -114.29790 | 31898 ft | 418 kts | 275° |
| 2026-05-05 18:34 | 33.94787 | -114.36630 | 31910 ft | 420 kts | 275° |
| 2026-05-05 18:34 | 33.95949 | -114.43542 | 31897 ft | 421 kts | 275° |
| 2026-05-05 18:35 | 33.97111 | -114.50448 | 31901 ft | 423 kts | 275° |
| 2026-05-05 18:35 | 33.98276 | -114.57401 | 31902 ft | 424 kts | 276° |
| 2026-05-05 18:36 | 33.99440 | -114.64384 | 31908 ft | 426 kts | 276° |
| 2026-05-05 18:36 | 34.00606 | -114.71402 | 31910 ft | 427 kts | 276° |
| 2026-05-05 18:37 | 34.01772 | -114.78445 | 31905 ft | 429 kts | 276° |
| 2026-05-05 18:37 | 34.02935 | -114.85499 | 31908 ft | 430 kts | 276° |
| 2026-05-05 18:38 | 34.04099 | -114.92580 | 31912 ft | 431 kts | 276° |
| 2026-05-05 18:38 | 34.05260 | -114.99667 | 31914 ft | 432 kts | 276° |
| 2026-05-05 18:39 | 34.06421 | -115.06785 | 31914 ft | 433 kts | 277° |
| 2026-05-05 18:39 | 34.07579 | -115.13911 | 31914 ft | 434 kts | 277° |
| 2026-05-05 18:40 | 34.08739 | -115.21067 | 31914 ft | 435 kts | 277° |
| 2026-05-05 18:40 | 34.09898 | -115.28247 | 31909 ft | 436 kts | 277° |
| 2026-05-05 18:41 | 34.11048 | -115.35398 | 31911 ft | 437 kts | 277° |
| 2026-05-05 18:41 | 34.12203 | -115.42610 | 31910 ft | 438 kts | 277° |
| 2026-05-05 18:42 | 34.13355 | -115.49827 | 31913 ft | 439 kts | 277° |
| 2026-05-05 18:42 | 34.14507 | -115.57078 | 31910 ft | 440 kts | 277° |
| 2026-05-05 18:43 | 34.15657 | -115.64338 | 31908 ft | 440 kts | 277° |
| 2026-05-05 18:43 | 34.16250 | -115.71629 | 31907 ft | 434 kts | 260° |
| 2026-05-05 18:44 | 34.15439 | -115.78855 | 31924 ft | 435 kts | 261° |
| 2026-05-05 18:44 | 34.14720 | -115.86122 | 31916 ft | 437 kts | 262° |
| 2026-05-05 18:45 | 34.14023 | -115.93373 | 31922 ft | 438 kts | 262° |
| 2026-05-05 18:45 | 34.13309 | -116.00683 | 31928 ft | 439 kts | 262° |
| 2026-05-05 18:46 | 34.12589 | -116.08016 | 31924 ft | 440 kts | 262° |
| 2026-05-05 18:46 | 34.11866 | -116.15355 | 31934 ft | 441 kts | 262° |
| 2026-05-05 18:47 | 34.11138 | -116.22709 | 31935 ft | 442 kts | 262° |
| 2026-05-05 18:47 | 34.10402 | -116.30090 | 31807 ft | 444 kts | 262° |
| 2026-05-05 18:48 | 34.10020 | -116.33764 | 31455 ft | 437 kts | 261° |
| 2026-05-05 18:48 | 34.09631 | -116.37363 | 31146 ft | 429 kts | 261° |
| 2026-05-05 18:48 | 34.09243 | -116.40922 | 30834 ft | 427 kts | 261° |
| 2026-05-05 18:48 | 34.08856 | -116.44487 | 30527 ft | 430 kts | 261° |
| 2026-05-05 18:49 | 34.08473 | -116.48040 | 30109 ft | 434 kts | 262° |
| 2026-05-05 18:49 | 34.08085 | -116.51661 | 29620 ft | 436 kts | 262° |
| 2026-05-05 18:49 | 34.07694 | -116.55291 | 29110 ft | 437 kts | 262° |
| 2026-05-05 18:49 | 34.07300 | -116.58928 | 28617 ft | 437 kts | 262° |
| 2026-05-05 18:50 | 34.06938 | -116.62538 | 28102 ft | 430 kts | 263° |
| 2026-05-05 18:50 | 34.06610 | -116.66101 | 27631 ft | 426 kts | 263° |
| 2026-05-05 18:50 | 34.06290 | -116.69647 | 27164 ft | 426 kts | 263° |
| 2026-05-05 18:50 | 34.05968 | -116.73198 | 26702 ft | 426 kts | 263° |
| 2026-05-05 18:51 | 34.05642 | -116.76753 | 26237 ft | 426 kts | 263° |
| 2026-05-05 18:51 | 34.05314 | -116.80292 | 25786 ft | 424 kts | 263° |
| 2026-05-05 18:51 | 34.04984 | -116.83820 | 25349 ft | 423 kts | 264° |
| 2026-05-05 18:51 | 34.04652 | -116.87337 | 24918 ft | 422 kts | 264° |
| 2026-05-05 18:52 | 34.04309 | -116.90843 | 24493 ft | 419 kts | 263° |
| 2026-05-05 18:52 | 34.03865 | -116.94305 | 24075 ft | 417 kts | 261° |
| 2026-05-05 18:52 | 34.03381 | -116.97748 | 23656 ft | 415 kts | 261° |
| 2026-05-05 18:52 | 34.02917 | -117.01175 | 23176 ft | 414 kts | 262° |
| 2026-05-05 18:53 | 34.02473 | -117.04601 | 22693 ft | 412 kts | 262° |
| 2026-05-05 18:53 | 34.02064 | -117.08016 | 22215 ft | 411 kts | 263° |
| 2026-05-05 18:53 | 34.01670 | -117.11415 | 21746 ft | 409 kts | 263° |
| 2026-05-05 18:53 | 34.01276 | -117.14803 | 21285 ft | 406 kts | 263° |
| 2026-05-05 18:54 | 34.00885 | -117.18120 | 20828 ft | 404 kts | 263° |
| 2026-05-05 18:54 | 34.00488 | -117.21457 | 20360 ft | 401 kts | 263° |
| 2026-05-05 18:54 | 34.00092 | -117.24768 | 19912 ft | 398 kts | 263° |
| 2026-05-05 18:54 | 33.99698 | -117.28051 | 19468 ft | 394 kts | 262° |
| 2026-05-05 18:55 | 33.99306 | -117.31310 | 19005 ft | 390 kts | 262° |
| 2026-05-05 18:55 | 33.98928 | -117.34503 | 18521 ft | 380 kts | 263° |
| 2026-05-05 18:55 | 33.98564 | -117.37609 | 17965 ft | 369 kts | 263° |
| 2026-05-05 18:55 | 33.98211 | -117.40629 | 17398 ft | 359 kts | 263° |
| 2026-05-05 18:56 | 33.97863 | -117.43586 | 16836 ft | 351 kts | 263° |
| 2026-05-05 18:56 | 33.97523 | -117.46457 | 16296 ft | 343 kts | 263° |
| 2026-05-05 18:56 | 33.97318 | -117.49282 | 15752 ft | 334 kts | 275° |
| 2026-05-05 18:56 | 33.97703 | -117.51970 | 15257 ft | 327 kts | 283° |
| 2026-05-05 18:57 | 33.98214 | -117.54655 | 14733 ft | 322 kts | 283° |
| 2026-05-05 18:57 | 33.98705 | -117.57235 | 14239 ft | 318 kts | 283° |
| 2026-05-05 18:57 | 33.99182 | -117.59818 | 13742 ft | 314 kts | 283° |
| 2026-05-05 18:57 | 33.99636 | -117.62346 | 13223 ft | 303 kts | 283° |
| 2026-05-05 18:58 | 34.00070 | -117.64797 | 12658 ft | 294 kts | 283° |
| 2026-05-05 18:58 | 34.00489 | -117.67170 | 12135 ft | 284 kts | 282° |
| 2026-05-05 18:58 | 34.00634 | -117.69502 | 11600 ft | 277 kts | 266° |
| 2026-05-05 18:58 | 34.00400 | -117.71767 | 11093 ft | 270 kts | 264° |
| 2026-05-05 18:59 | 34.00160 | -117.73998 | 10581 ft | 268 kts | 265° |
| 2026-05-05 18:59 | 33.99926 | -117.76241 | 10091 ft | 271 kts | 265° |
| 2026-05-05 18:59 | 33.99697 | -117.78507 | 9532 ft | 272 kts | 265° |
| 2026-05-05 18:59 | 33.99471 | -117.80767 | 8979 ft | 271 kts | 265° |
| 2026-05-05 19:00 | 33.99250 | -117.83015 | 8425 ft | 270 kts | 265° |
| 2026-05-05 19:00 | 33.99032 | -117.85251 | 7896 ft | 268 kts | 264° |
| 2026-05-05 19:00 | 33.98813 | -117.87469 | 7374 ft | 266 kts | 264° |
| 2026-05-05 19:00 | 33.98597 | -117.89677 | 6843 ft | 264 kts | 264° |
| 2026-05-05 19:01 | 33.98381 | -117.91864 | 6327 ft | 261 kts | 264° |
| 2026-05-05 19:01 | 33.98169 | -117.94022 | 5775 ft | 257 kts | 263° |
| 2026-05-05 19:01 | 33.97961 | -117.96134 | 5328 ft | 249 kts | 263° |
| 2026-05-05 19:01 | 33.97762 | -117.98167 | 4948 ft | 240 kts | 263° |
| 2026-05-05 19:02 | 33.97633 | -117.99478 | 4669 ft | 236 kts | 263° |
| 2026-05-05 19:02 | 33.97445 | -118.01410 | 4267 ft | 228 kts | 263° |
| 2026-05-05 19:02 | 33.97201 | -118.03866 | 3790 ft | 218 kts | 262° |
| 2026-05-05 19:02 | 33.97023 | -118.05647 | 3557 ft | 205 kts | 262° |
| 2026-05-05 19:03 | 33.96914 | -118.06740 | 3575 ft | 191 kts | 262° |
| 2026-05-05 19:03 | 33.96760 | -118.08291 | 3579 ft | 186 kts | 262° |
| 2026-05-05 19:03 | 33.96598 | -118.09908 | 3594 ft | 196 kts | 262° |
| 2026-05-05 19:03 | 33.96436 | -118.11542 | 3591 ft | 195 kts | 262° |
| 2026-05-05 19:04 | 33.96296 | -118.13173 | 3603 ft | 196 kts | 263° |
| 2026-05-05 19:04 | 33.96147 | -118.14801 | 3600 ft | 193 kts | 263° |
| 2026-05-05 19:04 | 33.95995 | -118.16347 | 3580 ft | 184 kts | 262° |
| 2026-05-05 19:04 | 33.95836 | -118.17888 | 3468 ft | 184 kts | 262° |
| 2026-05-05 19:05 | 33.95677 | -118.19413 | 3244 ft | 187 kts | 262° |
| 2026-05-05 19:05 | 33.95516 | -118.20964 | 2996 ft | 187 kts | 262° |
| 2026-05-05 19:05 | 33.95356 | -118.22514 | 2746 ft | 183 kts | 262° |
| 2026-05-05 19:05 | 33.95200 | -118.24020 | 2495 ft | 178 kts | 262° |
| 2026-05-05 19:06 | 33.95052 | -118.25459 | 2254 ft | 168 kts | 261° |
| 2026-05-05 19:06 | 33.94913 | -118.26809 | 2045 ft | 158 kts | 261° |
| 2026-05-05 19:06 | 33.94780 | -118.28089 | 1831 ft | 151 kts | 261° |
| 2026-05-05 19:06 | 33.94651 | -118.29356 | 1676 ft | 155 kts | 262° |
| 2026-05-05 19:07 | 33.94516 | -118.30651 | 1402 ft | 154 kts | 261° |
| 2026-05-05 19:07 | 33.94389 | -118.31909 | 1212 ft | 148 kts | 260° |
| 2026-05-05 19:07 | 33.94265 | -118.33106 | 1009 ft | 141 kts | 262° |
| 2026-05-05 19:07 | 33.94147 | -118.34252 | 823 ft | 136 kts | 262° |
| 2026-05-05 19:08 | 33.94035 | -118.35361 | 636 ft | 130 kts | 262° |
| 2026-05-05 19:08 | 33.93917 | -118.36472 | 468 ft | 140 kts | 263° |
| 2026-05-05 19:08 | 33.93802 | -118.37671 | 241 ft | 145 kts | 263° |
| 2026-05-05 19:08 | 33.93681 | -118.38845 | 128 ft | 133 kts | 262° |
| 2026-05-05 19:09 | 33.93585 | -118.39751 | 125 ft | 80 kts | 263° |
| 2026-05-05 19:09 | 33.93538 | -118.40185 | 123 ft | 33 kts | 263° |
| 2026-05-05 19:09 | 33.93538 | -118.40416 | 123 ft | 21 kts | 277° |
| 2026-05-05 19:09 | 33.93565 | -118.40558 | 124 ft | 17 kts | 290° |
| 2026-05-05 19:10 | 33.93596 | -118.40688 | 123 ft | 14 kts | 271° |
| 2026-05-05 19:10 | 33.93596 | -118.40799 | 122 ft | 13 kts | 282° |
| 2026-05-05 19:10 | 33.93634 | -118.40882 | 124 ft | 10 kts | 326° |
| 2026-05-05 19:10 | 33.93701 | -118.40899 | 124 ft | 10 kts | 352° |
| 2026-05-05 19:11 | 33.93767 | -118.40911 | 124 ft | 9 kts | 352° |
| 2026-05-05 19:11 | 33.93832 | -118.40920 | 123 ft | 9 kts | 0° |
| 2026-05-05 19:11 | 33.93869 | -118.40877 | 122 ft | 8 kts | 78° |
| 2026-05-05 19:11 | 33.93892 | -118.40819 | 123 ft | 8 kts | 37° |
| 2026-05-05 19:12 | 33.93943 | -118.40812 | 123 ft | 7 kts | 354° |
| 2026-05-05 19:12 | 33.93994 | -118.40820 | 124 ft | 7 kts | 353° |
| 2026-05-05 19:12 | 33.94043 | -118.40827 | 122 ft | 7 kts | 353° |
| 2026-05-05 19:12 | 33.94090 | -118.40834 | 124 ft | 7 kts | 352° |
| 2026-05-05 19:13 | 33.94137 | -118.40841 | 123 ft | 7 kts | 354° |
| 2026-05-05 19:13 | 33.94182 | -118.40850 | 122 ft | 7 kts | 341° |
| 2026-05-05 19:13 | 33.94212 | -118.40888 | 123 ft | 6 kts | 286° |
| 2026-05-05 19:13 | 33.94210 | -118.40930 | 122 ft | 0 kts | 261° |
| 2026-05-05 19:14 | 33.94210 | -118.40931 | 122 ft | 1 kts | 261° |
| 2026-05-05 19:14 | 33.94209 | -118.40941 | 125 ft | 0 kts | 260° |